Time,TemperatureF,DewpointF,PressureIn,WindDirection,WindDirectionDegrees,WindSpeedMPH,WindSpeedGustMPH,Humidity,HourlyPrecipIn,Conditions,Clouds,dailyrainin,SoftwareType,DateUTC
2013-01-18 00:09:00,30.1,27.0,30.25,East,90,9.0,17.0,88,0.01,,,0.15,weatherlink.com 1.10,2013-01-18 05:09:00,
2013-01-18 00:24:00,29.7,26.0,30.25,ENE,69,10.0,11.0,87,0.01,,,0.15,weatherlink.com 1.10,2013-01-18 05:24:00,
2013-01-18 00:39:00,29.3,26.0,30.25,ENE,59,4.0,15.0,87,0.01,,,0.15,weatherlink.com 1.10,2013-01-18 05:39:00,
2013-01-18 00:54:00,29.0,25.0,30.25,ESE,105,3.0,18.0,86,0.01,,,0.15,weatherlink.com 1.10,2013-01-18 05:54:00,
2013-01-18 01:09:00,28.7,25.0,30.27,East,101,9.0,12.0,87,0.00,,,0.15,weatherlink.com 1.10,2013-01-18 06:09:00,
2013-01-18 01:24:00,28.4,25.0,30.27,NNE,28,4.0,16.0,86,0.00,,,0.15,weatherlink.com 1.10,2013-01-18 06:24:00,
2013-01-18 01:39:00,28.2,25.0,30.29,East,79,11.0,15.0,86,0.01,,,0.16,weatherlink.com 1.10,2013-01-18 06:39:00,
2013-01-18 01:54:00,28.0,25.0,30.30,ESE,102,3.0,11.0,87,0.01,,,0.00,weatherlink.com 1.10,2013-01-18 06:54:00,
2013-01-18 02:09:00,27.9,24.0,30.30,ENE,75,5.0,17.0,86,0.01,,,0.00,weatherlink.com 1.10,2013-01-18 07:09:00,
2013-01-18 02:24:00,27.8,24.0,30.31,East,101,2.0,18.0,85,0.01,,,0.00,weatherlink.com 1.10,2013-01-18 07:24:00,
2013-01-18 02:40:00,27.5,24.0,30.31,ENE,71,4.0,15.0,87,0.01,,,0.01,weatherlink.com 1.10,2013-01-18 07:40:00,
2013-01-18 02:55:00,27.2,24.0,30.30,East,83,17.0,17.0,88,0.01,,,0.01,weatherlink.com 1.10,2013-01-18 07:55:00,
2013-01-18 03:10:00,27.1,24.0,30.31,ESE,108,8.0,16.0,88,0.01,,,0.01,weatherlink.com 1.10,2013-01-18 08:10:00,
2013-01-18 03:25:00,27.1,24.0,30.31,SE,142,5.0,17.0,88,0.01,,,0.01,weatherlink.com 1.10,2013-01-18 08:25:00,
2013-01-18 03:40:00,27.0,24.0,30.31,ESE,103,4.0,19.0,88,0.00,,,0.01,weatherlink.com 1.10,2013-01-18 08:40:00,
2013-01-18 03:55:00,26.9,24.0,30.31,East,93,5.0,17.0,88,0.00,,,0.01,weatherlink.com 1.10,2013-01-18 08:55:00,
2013-01-18 04:10:00,26.8,24.0,30.31,ENE,76,5.0,15.0,87,0.00,,,0.01,weatherlink.com 1.10,2013-01-18 09:10:00,
2013-01-18 04:25:00,26.7,23.0,30.32,ESE,104,3.0,15.0,87,0.00,,,0.01,weatherlink.com 1.10,2013-01-18 09:25:00,
2013-01-18 04:40:00,26.7,23.0,30.32,ESE,117,7.0,18.0,87,0.00,,,0.01,weatherlink.com 1.10,2013-01-18 09:40:00,
2013-01-18 04:55:00,26.7,23.0,30.32,ESE,106,8.0,18.0,87,0.00,,,0.01,weatherlink.com 1.10,2013-01-18 09:55:00,
2013-01-18 05:10:00,26.6,24.0,30.32,ESE,120,4.0,17.0,88,0.00,,,0.01,weatherlink.com 1.10,2013-01-18 10:10:00,
2013-01-18 05:25:00,26.6,24.0,30.33,ESE,107,2.0,17.0,88,0.00,,,0.01,weatherlink.com 1.10,2013-01-18 10:25:00,
2013-01-18 05:40:00,26.5,23.0,30.33,ESE,118,7.0,18.0,88,0.00,,,0.01,weatherlink.com 1.10,2013-01-18 10:40:00,
2013-01-18 05:55:00,26.3,23.0,30.34,East,82,7.0,16.0,87,0.00,,,0.01,weatherlink.com 1.10,2013-01-18 10:55:00,
2013-01-18 06:10:00,26.2,23.0,30.35,ESE,105,10.0,18.0,87,0.00,,,0.01,weatherlink.com 1.10,2013-01-18 11:10:00,
2013-01-18 06:25:00,26.0,23.0,30.35,ESE,111,4.0,14.0,87,0.00,,,0.01,weatherlink.com 1.10,2013-01-18 11:25:00,
2013-01-18 06:40:00,25.8,23.0,30.35,SE,138,5.0,16.0,87,0.00,,,0.01,weatherlink.com 1.10,2013-01-18 11:40:00,
2013-01-18 06:55:00,25.8,23.0,30.37,WSW,242,8.0,17.0,87,0.00,,,0.01,weatherlink.com 1.10,2013-01-18 11:55:00,
2013-01-18 07:10:00,25.6,22.0,30.39,SE,128,3.0,12.0,87,0.00,,,0.01,weatherlink.com 1.10,2013-01-18 12:10:00,
2013-01-18 07:25:00,25.5,22.0,30.40,ESE,109,7.0,12.0,87,0.00,,,0.01,weatherlink.com 1.10,2013-01-18 12:25:00,
2013-01-18 07:40:00,25.5,22.0,30.41,SE,125,1.0,11.0,87,0.00,,,0.01,weatherlink.com 1.10,2013-01-18 12:40:00,
2013-01-18 07:55:00,25.4,22.0,30.42,NNE,32,3.0,7.0,87,0.00,,,0.01,weatherlink.com 1.10,2013-01-18 12:55:00,
2013-01-18 08:10:00,25.4,22.0,30.43,East,98,3.0,3.0,86,0.00,,,0.01,weatherlink.com 1.10,2013-01-18 13:10:00,
2013-01-18 08:25:00,25.3,22.0,30.45,ESE,107,1.0,6.0,86,0.00,,,0.01,weatherlink.com 1.10,2013-01-18 13:25:00,
2013-01-18 08:40:00,25.4,22.0,30.45,East,91,3.0,8.0,85,0.00,,,0.01,weatherlink.com 1.10,2013-01-18 13:40:00,
2013-01-18 08:55:00,25.7,22.0,30.47,East,96,3.0,11.0,86,0.00,,,0.01,weatherlink.com 1.10,2013-01-18 13:55:00,
2013-01-18 09:10:00,26.0,22.0,30.48,East,101,1.0,10.0,85,0.00,,,0.01,weatherlink.com 1.10,2013-01-18 14:10:00,
2013-01-18 09:26:00,26.2,22.0,30.50,ESE,110,0.0,10.0,85,0.00,,,0.01,weatherlink.com 1.10,2013-01-18 14:26:00,
2013-01-18 09:41:00,26.6,23.0,30.52,ESE,112,1.0,8.0,86,0.00,,,0.01,weatherlink.com 1.10,2013-01-18 14:41:00,
2013-01-18 09:56:00,26.9,23.0,30.52,ESE,107,3.0,10.0,86,0.00,,,0.01,weatherlink.com 1.10,2013-01-18 14:56:00,
2013-01-18 10:11:00,27.2,23.0,30.53,East,89,2.0,14.0,85,0.00,,,0.01,weatherlink.com 1.10,2013-01-18 15:11:00,
2013-01-18 10:26:00,27.4,24.0,30.54,ESE,109,7.0,10.0,85,0.00,,,0.01,weatherlink.com 1.10,2013-01-18 15:26:00,
2013-01-18 10:41:00,27.8,23.0,30.55,ESE,123,1.0,8.0,83,0.00,,,0.01,weatherlink.com 1.10,2013-01-18 15:41:00,
2013-01-18 10:56:00,28.2,24.0,30.55,ESE,107,3.0,9.0,84,0.00,,,0.01,weatherlink.com 1.10,2013-01-18 15:56:00,
2013-01-18 11:11:00,28.9,24.0,30.55,ENE,66,0.0,5.0,82,0.00,,,0.01,weatherlink.com 1.10,2013-01-18 16:11:00,
2013-01-18 11:26:00,29.5,25.0,30.55,ESE,107,2.0,5.0,82,0.00,,,0.01,weatherlink.com 1.10,2013-01-18 16:26:00,
2013-01-18 11:41:00,29.8,24.0,30.55,ESE,113,2.0,7.0,80,0.00,,,0.01,weatherlink.com 1.10,2013-01-18 16:41:00,
2013-01-18 11:56:00,30.2,24.0,30.54,ESE,122,0.0,7.0,76,0.00,,,0.01,weatherlink.com 1.10,2013-01-18 16:56:00,
2013-01-18 12:11:00,31.0,24.0,30.54,ESE,112,1.0,7.0,75,0.00,,,0.01,weatherlink.com 1.10,2013-01-18 17:11:00,
2013-01-18 12:26:00,32.0,25.0,30.53,ESE,109,1.0,5.0,75,0.00,,,0.01,weatherlink.com 1.10,2013-01-18 17:26:00,
2013-01-18 12:41:00,32.1,21.0,30.53,East,90,2.0,5.0,65,0.00,,,0.01,weatherlink.com 1.10,2013-01-18 17:41:00,
2013-01-18 12:56:00,32.5,21.0,30.52,East,98,5.0,5.0,63,0.01,,,0.02,weatherlink.com 1.10,2013-01-18 17:56:00,
2013-01-18 13:11:00,33.1,22.0,30.51,East,100,2.0,8.0,63,0.01,,,0.02,weatherlink.com 1.10,2013-01-18 18:11:00,
2013-01-18 13:26:00,33.5,22.0,30.52,ESE,117,2.0,7.0,62,0.01,,,0.02,weatherlink.com 1.10,2013-01-18 18:26:00,
2013-01-18 13:41:00,33.9,20.0,30.52,ESE,114,0.0,3.0,58,0.01,,,0.02,weatherlink.com 1.10,2013-01-18 18:41:00,
2013-01-18 13:56:00,34.1,20.0,30.52,SSE,154,0.0,2.0,57,0.00,,,0.02,weatherlink.com 1.10,2013-01-18 18:56:00,
2013-01-18 14:11:00,34.4,20.0,30.52,ESE,111,0.0,4.0,55,0.02,,,0.04,weatherlink.com 1.10,2013-01-18 19:11:00,
2013-01-18 14:26:00,34.8,22.0,30.52,ESE,103,2.0,3.0,60,0.06,,,0.08,weatherlink.com 1.10,2013-01-18 19:26:00,
2013-01-18 14:41:00,34.9,23.0,30.52,ESE,111,0.0,3.0,61,0.09,,,0.11,weatherlink.com 1.10,2013-01-18 19:41:00,
2013-01-18 14:56:00,35.1,22.0,30.53,East,93,3.0,6.0,60,0.11,,,0.13,weatherlink.com 1.10,2013-01-18 19:56:00,
2013-01-18 15:11:00,35.5,23.0,30.52,ESE,103,3.0,6.0,61,0.11,,,0.16,weatherlink.com 1.10,2013-01-18 20:11:00,
2013-01-18 15:26:00,35.7,26.0,30.52,ESE,104,1.0,4.0,68,0.11,,,0.19,weatherlink.com 1.10,2013-01-18 20:26:00,
2013-01-18 15:41:00,35.5,26.0,30.53,East,90,3.0,5.0,69,0.10,,,0.21,weatherlink.com 1.10,2013-01-18 20:41:00,
2013-01-18 15:56:00,35.0,26.0,30.53,ENE,78,1.0,3.0,70,0.09,,,0.23,weatherlink.com 1.10,2013-01-18 20:56:00,
2013-01-18 16:11:00,34.1,26.0,30.54,NNE,13,1.0,2.0,72,0.09,,,0.25,weatherlink.com 1.10,2013-01-18 21:11:00,
2013-01-18 16:26:00,33.3,25.0,30.54,NE,56,1.0,3.0,71,0.08,,,0.27,weatherlink.com 1.10,2013-01-18 21:26:00,
2013-01-18 16:41:00,32.7,26.0,30.54,NE,50,0.0,2.0,77,0.09,,,0.30,weatherlink.com 1.10,2013-01-18 21:41:00,
2013-01-18 16:56:00,31.9,27.0,30.55,NE,50,0.0,1.0,81,0.08,,,0.31,weatherlink.com 1.10,2013-01-18 21:56:00,
2013-01-18 17:11:00,30.8,26.0,30.55,NE,50,0.0,2.0,82,0.08,,,0.33,weatherlink.com 1.10,2013-01-18 22:11:00,
2013-01-18 17:26:00,30.3,25.0,30.56,NE,50,0.0,1.0,81,0.07,,,0.35,weatherlink.com 1.10,2013-01-18 22:26:00,
2013-01-18 17:41:00,29.9,26.0,30.56,NE,50,0.0,1.0,84,0.06,,,0.36,weatherlink.com 1.10,2013-01-18 22:41:00,
2013-01-18 17:56:00,29.4,25.0,30.56,NE,50,0.0,0.0,84,0.05,,,0.36,weatherlink.com 1.10,2013-01-18 22:56:00,
2013-01-18 18:11:00,28.9,26.0,30.57,NE,50,0.0,0.0,87,0.03,,,0.36,weatherlink.com 1.10,2013-01-18 23:11:00,
2013-01-18 18:26:00,28.5,26.0,30.57,NE,50,0.0,1.0,89,0.01,,,0.36,weatherlink.com 1.10,2013-01-18 23:26:00,
2013-01-18 18:41:00,28.3,26.0,30.57,NE,50,0.0,0.0,90,0.00,,,0.36,weatherlink.com 1.10,2013-01-18 23:41:00,
2013-01-18 18:56:00,28.1,26.0,30.57,NE,50,0.0,0.0,91,0.00,,,0.36,weatherlink.com 1.10,2013-01-18 23:56:00,
2013-01-18 19:12:00,27.7,26.0,30.57,NE,50,0.0,1.0,92,0.00,,,0.36,weatherlink.com 1.10,2013-01-19 00:12:00,
2013-01-18 19:27:00,27.4,26.0,30.57,NE,50,0.0,1.0,93,0.00,,,0.36,weatherlink.com 1.10,2013-01-19 00:27:00,
2013-01-18 19:42:00,27.2,26.0,30.57,NE,50,0.0,0.0,93,0.00,,,0.36,weatherlink.com 1.10,2013-01-19 00:42:00,
2013-01-18 19:57:00,26.9,25.0,30.57,NE,50,0.0,0.0,93,0.00,,,0.36,weatherlink.com 1.10,2013-01-19 00:57:00,
2013-01-18 20:12:00,26.6,25.0,30.57,NE,50,0.0,0.0,93,0.00,,,0.36,weatherlink.com 1.10,2013-01-19 01:12:00,
2013-01-18 20:42:00,26.2,25.0,30.57,NE,50,0.0,0.0,94,0.00,,,0.36,weatherlink.com 1.10,2013-01-19 01:42:00,
2013-01-18 20:57:00,26.1,25.0,30.57,NE,50,0.0,0.0,94,0.00,,,0.36,weatherlink.com 1.10,2013-01-19 01:57:00,
2013-01-18 21:12:00,25.8,24.0,30.57,NE,50,0.0,1.0,94,0.00,,,0.36,weatherlink.com 1.10,2013-01-19 02:12:00,
2013-01-18 21:27:00,25.6,24.0,30.57,NE,50,0.0,1.0,94,0.00,,,0.36,weatherlink.com 1.10,2013-01-19 02:27:00,
2013-01-18 21:42:00,25.3,24.0,30.57,NE,50,0.0,1.0,94,0.00,,,0.36,weatherlink.com 1.10,2013-01-19 02:42:00,
2013-01-18 21:57:00,25.2,24.0,30.56,NE,50,0.0,2.0,94,0.00,,,0.36,weatherlink.com 1.10,2013-01-19 02:57:00,
2013-01-18 22:12:00,25.1,24.0,30.56,NE,50,0.0,2.0,94,0.00,,,0.36,weatherlink.com 1.10,2013-01-19 03:12:00,
2013-01-18 22:27:00,25.0,24.0,30.55,NE,50,0.0,0.0,94,0.00,,,0.36,weatherlink.com 1.10,2013-01-19 03:27:00,
2013-01-18 22:42:00,24.8,23.0,30.55,NE,50,0.0,0.0,94,0.00,,,0.36,weatherlink.com 1.10,2013-01-19 03:42:00,
2013-01-18 22:57:00,24.6,23.0,30.55,NE,50,0.0,1.0,94,0.00,,,0.36,weatherlink.com 1.10,2013-01-19 03:57:00,
2013-01-18 23:12:00,24.4,23.0,30.55,NE,50,0.0,0.0,94,0.00,,,0.36,weatherlink.com 1.10,2013-01-19 04:12:00,
2013-01-18 23:27:00,24.3,23.0,30.55,NE,50,0.0,1.0,94,0.00,,,0.36,weatherlink.com 1.10,2013-01-19 04:27:00,
2013-01-18 23:42:00,23.9,23.0,30.54,NE,49,0.0,2.0,94,0.00,,,0.36,weatherlink.com 1.10,2013-01-19 04:42:00,
2013-01-18 23:57:00,23.6,22.0,30.54,NE,49,0.0,0.0,94,0.00,,,0.36,weatherlink.com 1.10,2013-01-19 04:57:00,